Time;durP1;ratioP1;P1;durP2;ratioP2;P2;SDS_P1;SDS_P2;PMS_P1;PMS_P2;Temp;Humidity;BMP_temperature;BMP_pressure;BME280_temperature;BME280_humidity;BME280_pressure;Samples;Min_cycle;Max_cycle;Signal;HPM_P1;HPM_P2
2022/04/23 00:00:08;;;;;;;11.77;10.23;;;10.90;99.90;;;;;;5059428;28;20120;-74
2022/04/23 00:02:41;;;;;;;12.18;10.23;;;10.80;99.90;;;;;;5073668;28;20050;-74
2022/04/23 00:05:10;;;;;;;12.40;10.40;;;10.80;99.90;;;;;;5067223;28;20405;-74
2022/04/23 00:07:39;;;;;;;14.43;10.82;;;10.80;99.90;;;;;;5065837;28;20124;-73
2022/04/23 00:10:08;;;;;;;12.90;10.98;;;10.70;99.90;;;;;;5065824;28;20130;-74
2022/04/23 00:12:34;;;;;;;12.95;11.30;;;10.80;99.90;;;;;;5055037;28;20044;-74
2022/04/23 00:15:06;;;;;;;13.70;11.63;;;10.80;99.90;;;;;;5053799;28;20052;-73
2022/04/23 00:17:37;;;;;;;13.77;11.23;;;10.80;99.90;;;;;;5062950;28;20048;-73
2022/04/23 00:20:06;;;;;;;15.35;13.00;;;10.90;99.90;;;;;;5063365;28;20482;-73
2022/04/23 00:22:35;;;;;;;18.38;12.52;;;10.90;99.90;;;;;;5057040;28;20043;-73
2022/04/23 00:25:13;;;;;;;14.45;12.07;;;10.90;99.90;;;;;;5067258;28;20141;-73
2022/04/23 00:27:38;;;;;;;15.38;13.02;;;10.90;99.90;;;;;;5063003;28;20189;-73
2022/04/23 00:30:07;;;;;;;15.25;13.18;;;10.90;99.90;;;;;;5082865;28;20028;-74
2022/04/23 00:32:32;;;;;;;15.65;12.63;;;11.00;99.90;;;;;;5090572;28;20520;-75
2022/04/23 00:37:49;;;;;;;15.88;12.90;;;11.00;99.90;;;;;;5087568;28;20383;-74
2022/04/23 00:40:17;;;;;;;18.83;12.85;;;10.90;99.90;;;;;;5090630;28;20044;-74
2022/04/23 00:42:52;;;;;;;16.30;13.15;;;10.90;99.90;;;;;;5090543;28;20394;-74
2022/04/23 00:45:31;;;;;;;16.90;12.73;;;10.90;99.90;;;;;;5072694;28;20044;-74
2022/04/23 00:47:59;;;;;;;16.90;13.40;;;10.80;99.90;;;;;;5063632;28;20100;-74
2022/04/23 00:50:36;;;;;;;15.65;13.27;;;10.80;99.90;;;;;;5065297;28;20040;-74
2022/04/23 00:53:03;;;;;;;17.23;13.45;;;10.70;99.90;;;;;;5073629;28;20135;-74
2022/04/23 00:55:32;;;;;;;16.33;13.73;;;10.80;99.90;;;;;;5064254;28;20079;-74
2022/04/23 00:58:02;;;;;;;19.58;13.85;;;10.70;99.90;;;;;;5058180;28;20044;-74
2022/04/23 01:00:28;;;;;;;17.27;14.50;;;10.60;99.90;;;;;;5053415;28;20083;-74
2022/04/23 01:02:58;;;;;;;18.05;14.70;;;10.60;99.90;;;;;;5066876;28;20043;-73
2022/04/23 01:05:41;;;;;;;16.70;15.00;;;10.60;99.90;;;;;;5061383;28;20485;-74
2022/04/23 01:08:10;;;;;;;19.40;15.35;;;10.50;99.90;;;;;;5080717;28;20036;-73
2022/04/23 01:10:48;;;;;;;18.60;15.18;;;10.50;99.90;;;;;;5063010;28;20047;-73
2022/04/23 01:13:14;;;;;;;17.38;14.25;;;10.50;99.90;;;;;;5059259;28;20109;-74
2022/04/23 01:16:10;;;;;;;18.67;15.88;;;10.60;99.90;;;;;;5060016;28;20073;-74
2022/04/23 01:18:42;;;;;;;19.60;15.93;;;10.50;99.90;;;;;;5066432;28;20097;-74
2022/04/23 01:21:13;;;;;;;17.75;15.80;;;10.50;99.90;;;;;;5072782;28;20337;-74
2022/04/23 01:23:47;;;;;;;18.80;14.95;;;10.50;99.90;;;;;;5063999;28;20094;-74
2022/04/23 01:26:50;;;;;;;18.30;14.82;;;10.40;99.90;;;;;;5060901;28;20137;-73
2022/04/23 01:29:19;;;;;;;18.88;15.95;;;10.50;99.90;;;;;;5061356;28;20521;-74
2022/04/23 01:31:45;;;;;;;16.95;15.15;;;10.50;99.90;;;;;;5053637;28;20032;-74
2022/04/23 01:34:16;;;;;;;19.55;15.65;;;10.50;99.90;;;;;;5076302;28;20378;-74
2022/04/23 01:36:45;;;;;;;18.85;15.40;;;10.50;99.90;;;;;;5060017;28;20089;-73
2022/04/23 01:39:13;;;;;;;17.83;14.43;;;10.60;99.90;;;;;;5057081;28;20032;-74
2022/04/23 01:41:39;;;;;;;19.15;14.50;;;10.50;99.90;;;;;;5072561;28;20036;-74
2022/04/23 01:44:07;;;;;;;17.25;15.45;;;10.50;99.90;;;;;;5070074;28;20036;-74
2022/04/23 01:46:33;;;;;;;19.13;15.57;;;10.60;99.90;;;;;;5068778;28;20044;-74
2022/04/23 01:48:59;;;;;;;18.38;15.70;;;10.50;99.90;;;;;;5066974;28;20811;-73
2022/04/23 01:51:25;;;;;;;19.77;16.02;;;10.50;99.90;;;;;;5058732;28;20476;-74
2022/04/23 01:53:53;;;;;;;18.02;16.08;;;10.40;99.90;;;;;;5072286;28;20118;-73
2022/04/23 01:56:21;;;;;;;19.42;16.08;;;10.40;99.90;;;;;;5079604;28;20047;-73
2022/04/23 01:58:46;;;;;;;22.73;16.73;;;10.40;99.90;;;;;;5072295;28;20060;-74
2022/04/23 02:01:12;;;;;;;19.17;16.17;;;10.40;99.90;;;;;;5073175;28;20074;-74
2022/04/23 02:03:38;;;;;;;16.63;14.45;;;10.30;99.90;;;;;;5063516;28;20048;-74
2022/04/23 02:06:04;;;;;;;16.95;15.05;;;10.20;99.90;;;;;;5057486;28;20514;-74
2022/04/23 02:08:30;;;;;;;16.90;15.10;;;10.30;99.90;;;;;;5074854;28;20048;-74
2022/04/23 02:10:56;;;;;;;17.25;15.45;;;10.20;99.90;;;;;;5075618;28;20405;-74
2022/04/23 02:13:22;;;;;;;17.30;15.18;;;10.20;99.90;;;;;;5076184;28;20127;-73
2022/04/23 02:15:48;;;;;;;19.05;15.85;;;10.10;99.90;;;;;;5070616;28;20123;-74
2022/04/23 02:18:14;;;;;;;18.65;16.08;;;10.20;99.90;;;;;;5062973;28;20042;-74
2022/04/23 02:20:40;;;;;;;18.15;16.02;;;10.20;99.90;;;;;;5060583;28;20032;-73
2022/04/23 02:23:06;;;;;;;21.25;17.60;;;10.20;99.90;;;;;;5065757;28;20028;-73
2022/04/23 02:25:35;;;;;;;15.88;14.27;;;10.10;99.90;;;;;;5067155;28;20062;-73
2022/04/23 02:28:01;;;;;;;18.00;15.98;;;10.10;99.90;;;;;;5069829;28;20048;-74
2022/04/23 02:30:27;;;;;;;16.88;14.68;;;10.10;99.90;;;;;;5055944;28;20044;-74
2022/04/23 02:32:52;;;;;;;17.55;14.88;;;10.00;99.90;;;;;;5067187;28;20052;-74
2022/04/23 02:35:20;;;;;;;17.27;14.95;;;10.00;99.90;;;;;;5065107;28;20051;-74
2022/04/23 02:37:47;;;;;;;17.00;15.15;;;10.10;99.90;;;;;;5067759;28;20036;-73
2022/04/23 02:40:14;;;;;;;19.45;15.52;;;10.00;99.90;;;;;;5075915;28;20115;-73
2022/04/23 02:42:41;;;;;;;18.55;15.88;;;10.00;99.90;;;;;;5075256;28;20137;-73
2022/04/23 02:45:09;;;;;;;17.15;14.52;;;9.90;99.90;;;;;;5064803;28;20063;-73
2022/04/23 02:47:41;;;;;;;17.25;15.30;;;10.00;99.90;;;;;;5089137;28;20375;-73
2022/04/23 02:50:12;;;;;;;17.88;15.40;;;9.90;99.90;;;;;;5085004;28;20040;-74
2022/04/23 02:52:43;;;;;;;17.92;15.13;;;9.90;99.90;;;;;;5087136;28;20044;-73
2022/04/23 02:55:11;;;;;;;17.67;15.82;;;9.90;99.90;;;;;;5076598;28;20067;-73
2022/04/23 02:57:42;;;;;;;17.33;15.63;;;9.80;99.90;;;;;;5066523;28;20123;-74
2022/04/23 03:00:10;;;;;;;17.30;15.43;;;9.90;99.90;;;;;;5067485;28;20064;-74
2022/04/23 03:02:39;;;;;;;17.63;14.63;;;9.80;99.90;;;;;;5071281;28;20101;-74
2022/04/23 03:05:06;;;;;;;17.50;15.27;;;9.80;99.90;;;;;;5057657;28;20120;-73
2022/04/23 03:07:34;;;;;;;16.00;14.23;;;9.70;99.90;;;;;;5066547;28;20048;-74
2022/04/23 03:10:04;;;;;;;16.67;14.88;;;9.60;99.90;;;;;;5066688;28;20459;-74
2022/04/23 03:12:30;;;;;;;18.58;14.55;;;9.60;99.90;;;;;;5066899;28;20039;-74
2022/04/23 03:14:56;;;;;;;17.25;15.43;;;9.50;99.90;;;;;;5060522;28;20063;-73
2022/04/23 03:17:23;;;;;;;17.17;15.32;;;9.50;99.90;;;;;;5082821;28;20130;-73
2022/04/23 03:19:48;;;;;;;17.73;15.82;;;9.50;99.90;;;;;;5069536;28;20072;-74
2022/04/23 03:22:19;;;;;;;15.80;13.60;;;9.50;99.90;;;;;;5069065;22;20072;-75
2022/04/23 03:24:45;;;;;;;17.75;14.70;;;9.50;99.90;;;;;;5052003;28;20494;-75
2022/04/23 03:27:11;;;;;;;14.85;13.02;;;9.40;99.90;;;;;;5050620;28;20051;-75
2022/04/23 03:29:36;;;;;;;16.67;14.88;;;9.40;99.90;;;;;;5049292;28;20041;-75
2022/04/23 03:32:02;;;;;;;17.15;15.23;;;9.40;99.90;;;;;;5044562;28;20106;-75
2022/04/23 03:34:27;;;;;;;16.73;14.20;;;9.40;99.90;;;;;;5031775;28;20041;-75
2022/04/23 03:36:55;;;;;;;15.13;13.25;;;9.30;99.90;;;;;;5014588;28;20487;-75
2022/04/23 03:39:21;;;;;;;15.73;13.98;;;9.30;99.90;;;;;;5029497;28;20033;-75
2022/04/23 03:41:47;;;;;;;16.27;14.40;;;9.30;99.90;;;;;;5031651;28;20629;-75
2022/04/23 03:44:12;;;;;;;15.40;13.18;;;9.20;99.90;;;;;;5031077;28;20044;-75
2022/04/23 03:46:37;;;;;;;16.55;13.13;;;9.20;99.90;;;;;;5030506;28;20495;-75
2022/04/23 03:49:03;;;;;;;17.33;14.35;;;9.20;99.90;;;;;;5030451;28;20076;-74
2022/04/23 03:51:28;;;;;;;16.88;13.27;;;9.20;99.90;;;;;;5031282;28;20041;-75
2022/04/23 03:53:55;;;;;;;18.65;13.32;;;9.20;99.90;;;;;;5014836;28;20107;-75
2022/04/23 03:56:20;;;;;;;15.18;12.77;;;9.20;99.90;;;;;;5030403;28;20047;-74
2022/04/23 03:58:46;;;;;;;19.30;13.38;;;9.20;99.90;;;;;;5030043;28;20037;-75
2022/04/23 04:01:11;;;;;;;16.23;12.75;;;9.20;99.90;;;;;;5030261;28;20450;-75
2022/04/23 04:03:37;;;;;;;15.43;13.80;;;9.20;99.90;;;;;;5031012;28;20079;-75
2022/04/23 04:06:03;;;;;;;17.77;13.77;;;9.20;99.90;;;;;;5029056;28;20403;-75
2022/04/23 04:08:29;;;;;;;15.00;12.30;;;9.20;99.90;;;;;;5014455;28;20087;-75
2022/04/23 04:10:54;;;;;;;17.30;13.95;;;9.20;99.90;;;;;;5030041;28;20072;-75
2022/04/23 04:13:20;;;;;;;14.27;12.77;;;9.20;99.90;;;;;;5014389;28;20048;-75
2022/04/23 04:15:47;;;;;;;13.70;12.20;;;9.10;99.90;;;;;;5030055;28;20041;-75
2022/04/23 04:18:12;;;;;;;15.27;12.82;;;9.20;99.90;;;;;;5030503;28;20087;-75
2022/04/23 04:20:40;;;;;;;14.48;12.85;;;9.10;99.90;;;;;;5029648;28;20128;-75
2022/04/23 04:23:06;;;;;;;13.68;11.60;;;9.10;99.90;;;;;;5029773;28;20040;-75
2022/04/23 04:25:32;;;;;;;13.57;12.10;;;9.10;99.90;;;;;;5013690;28;20041;-75
2022/04/23 04:28:01;;;;;;;14.60;12.20;;;9.10;99.90;;;;;;5030659;28;20044;-75
2022/04/23 04:30:27;;;;;;;13.88;12.00;;;9.10;99.90;;;;;;5029664;28;20498;-75
2022/04/23 04:32:53;;;;;;;15.05;13.02;;;9.10;99.90;;;;;;5014525;28;20029;-75
2022/04/23 04:35:19;;;;;;;14.38;12.88;;;9.10;99.90;;;;;;5030578;28;20099;-75
2022/04/23 04:37:44;;;;;;;14.38;12.85;;;9.00;99.90;;;;;;5029531;28;20087;-75
2022/04/23 04:40:11;;;;;;;14.25;12.40;;;9.10;99.90;;;;;;5017294;28;20033;-75
2022/04/23 04:42:36;;;;;;;15.10;12.55;;;9.10;99.90;;;;;;5017654;28;20124;-75
2022/04/23 04:45:03;;;;;;;16.02;12.70;;;9.10;99.90;;;;;;5030600;28;20120;-75
2022/04/23 04:47:28;;;;;;;13.60;12.20;;;9.00;99.90;;;;;;5028947;28;20041;-75
2022/04/23 04:49:55;;;;;;;14.05;11.55;;;9.10;99.90;;;;;;5029182;28;20091;-75
2022/04/23 04:52:20;;;;;;;15.10;12.60;;;9.00;99.90;;;;;;5030079;28;20135;-75
2022/04/23 04:54:46;;;;;;;15.02;11.82;;;9.00;99.90;;;;;;5030297;28;20128;-75
2022/04/23 04:57:11;;;;;;;13.35;11.88;;;9.00;99.90;;;;;;5029348;28;20406;-75
2022/04/23 04:59:37;;;;;;;13.30;11.82;;;9.10;99.90;;;;;;5028258;28;20065;-75
2022/04/23 05:02:03;;;;;;;15.35;12.23;;;9.10;99.90;;;;;;5030170;28;20451;-75
2022/04/23 05:04:29;;;;;;;13.00;10.55;;;9.00;99.90;;;;;;5029401;28;20093;-75
2022/04/23 05:06:55;;;;;;;13.25;11.25;;;9.10;99.90;;;;;;5029964;28;20033;-75
2022/04/23 05:09:21;;;;;;;11.75;10.55;;;9.10;99.90;;;;;;5028062;28;20037;-75
2022/04/23 05:11:46;;;;;;;14.13;11.30;;;9.20;99.90;;;;;;5029698;28;20034;-75
2022/04/23 05:14:12;;;;;;;12.45;10.27;;;9.20;99.90;;;;;;5037289;28;20029;-75
2022/04/23 05:16:37;;;;;;;12.88;10.73;;;9.20;99.90;;;;;;5029317;28;20522;-75
2022/04/23 05:19:03;;;;;;;13.52;11.70;;;9.40;99.90;;;;;;5011945;28;20087;-75
2022/04/23 05:21:29;;;;;;;12.18;10.98;;;9.40;99.90;;;;;;5029951;28;20213;-75
2022/04/23 05:23:54;;;;;;;11.48;9.48;;;9.30;99.90;;;;;;5030142;28;20487;-75
2022/04/23 05:26:20;;;;;;;11.60;10.13;;;9.40;99.90;;;;;;5029192;28;20042;-75
2022/04/23 05:28:45;;;;;;;13.27;10.95;;;9.40;99.90;;;;;;5028863;28;20030;-75
2022/04/23 05:31:11;;;;;;;11.38;10.27;;;9.40;99.90;;;;;;5033201;28;20037;-75
2022/04/23 05:33:38;;;;;;;11.30;10.05;;;9.40;99.90;;;;;;5033855;28;20037;-75
2022/04/23 05:36:06;;;;;;;12.98;9.93;;;9.40;99.90;;;;;;5032947;28;20076;-75
2022/04/23 05:38:32;;;;;;;11.55;10.35;;;9.50;99.90;;;;;;5042287;28;20116;-75
2022/04/23 05:40:58;;;;;;;10.90;9.75;;;9.50;99.90;;;;;;5038723;28;20037;-75
2022/04/23 05:43:23;;;;;;;11.90;10.15;;;9.50;99.90;;;;;;5034913;28;20132;-75
2022/04/23 05:45:50;;;;;;;11.98;10.00;;;9.60;99.90;;;;;;5033710;28;20049;-75
2022/04/23 05:48:16;;;;;;;10.95;9.38;;;9.60;99.90;;;;;;5032524;28;20483;-75
2022/04/23 05:50:41;;;;;;;12.02;9.40;;;9.70;99.90;;;;;;5031759;28;20041;-74
2022/04/23 05:53:07;;;;;;;9.93;8.93;;;9.70;99.90;;;;;;5015407;28;20030;-75
2022/04/23 05:55:32;;;;;;;10.38;9.10;;;9.80;99.90;;;;;;5033595;28;20041;-77
2022/04/23 05:57:58;;;;;;;10.63;9.50;;;9.90;99.90;;;;;;5031094;28;20056;-77
2022/04/23 06:00:23;;;;;;;9.65;8.65;;;10.00;99.90;;;;;;5028572;28;20037;-76
2022/04/23 06:02:49;;;;;;;9.52;8.50;;;10.10;99.90;;;;;;5032675;28;20026;-76
2022/04/23 06:05:14;;;;;;;9.73;8.73;;;10.20;99.90;;;;;;5032769;28;20179;-75
2022/04/23 06:07:40;;;;;;;10.00;9.00;;;10.40;99.90;;;;;;5032897;28;20034;-76
2022/04/23 06:10:07;;;;;;;10.23;8.88;;;10.40;99.90;;;;;;5033240;28;20523;-75
2022/04/23 06:12:34;;;;;;;11.80;8.68;;;10.40;99.90;;;;;;5033103;28;20114;-75
2022/04/23 06:15:00;;;;;;;9.32;8.43;;;10.50;99.90;;;;;;5015679;28;20041;-76
2022/04/23 06:17:26;;;;;;;10.60;9.18;;;10.60;99.90;;;;;;5033207;28;20041;-75
2022/04/23 06:19:52;;;;;;;8.93;8.02;;;10.70;99.90;;;;;;5016432;28;20064;-76
2022/04/23 06:22:19;;;;;;;9.73;8.73;;;10.80;99.90;;;;;;5032000;28;20456;-76
2022/04/23 06:24:45;;;;;;;9.75;8.75;;;10.70;99.90;;;;;;5022665;28;20033;-76
2022/04/23 06:27:10;;;;;;;11.10;8.77;;;10.70;99.90;;;;;;5032020;28;20506;-76
2022/04/23 06:29:36;;;;;;;11.63;9.43;;;10.70;99.90;;;;;;5016467;28;20041;-75
2022/04/23 06:32:02;;;;;;;10.68;9.57;;;10.80;99.90;;;;;;5015434;28;20029;-76
2022/04/23 06:34:28;;;;;;;10.88;9.07;;;10.70;99.90;;;;;;5015187;28;20033;-75
2022/04/23 06:36:53;;;;;;;11.40;9.90;;;10.90;99.90;;;;;;5015683;28;20140;-76
2022/04/23 06:39:19;;;;;;;11.05;8.77;;;10.90;99.90;;;;;;5024201;28;20384;-75
2022/04/23 06:41:45;;;;;;;9.55;8.55;;;11.00;99.90;;;;;;5026347;28;20431;-77
2022/04/23 06:44:10;;;;;;;10.70;8.85;;;11.10;99.90;;;;;;5027639;28;20037;-75
2022/04/23 06:46:36;;;;;;;11.65;9.77;;;11.20;99.90;;;;;;5032158;28;20048;-75
2022/04/23 06:49:05;;;;;;;13.15;10.30;;;11.20;99.90;;;;;;5031627;28;20034;-75
2022/04/23 06:51:37;;;;;;;11.85;10.15;;;11.30;99.90;;;;;;5028193;28;20493;-75
2022/04/23 06:54:03;;;;;;;10.50;9.50;;;11.40;99.90;;;;;;5031231;28;20244;-75
2022/04/23 06:56:30;;;;;;;11.18;9.93;;;11.40;99.90;;;;;;5028854;28;20051;-76
2022/04/23 06:58:55;;;;;;;11.27;10.07;;;11.40;99.90;;;;;;5030484;28;20044;-74
2022/04/23 07:01:21;;;;;;;11.20;9.98;;;11.40;99.90;;;;;;5030343;28;20033;-74
2022/04/23 07:03:46;;;;;;;11.45;9.82;;;11.50;99.90;;;;;;5032207;28;20041;-75
2022/04/23 07:06:12;;;;;;;11.00;9.73;;;11.50;99.90;;;;;;5015656;28;20402;-76
2022/04/23 07:08:40;;;;;;;13.05;9.68;;;11.50;99.90;;;;;;5030833;28;20037;-76
2022/04/23 07:11:06;;;;;;;11.25;9.43;;;11.50;99.90;;;;;;5026290;28;20491;-74
2022/04/23 07:13:32;;;;;;;13.13;10.27;;;11.60;99.90;;;;;;5029092;28;21273;-75
2022/04/23 07:15:58;;;;;;;12.63;10.45;;;11.70;99.90;;;;;;5030158;28;20041;-75
2022/04/23 07:18:24;;;;;;;12.32;11.02;;;11.70;99.90;;;;;;5028040;28;20506;-75
2022/04/23 07:20:49;;;;;;;12.77;10.95;;;11.80;99.90;;;;;;5031155;28;20033;-74
2022/04/23 07:25:59;;;;;;;13.43;10.90;;;11.90;99.90;;;;;;5030326;28;20053;-74
2022/04/23 07:28:25;;;;;;;12.73;11.13;;;11.90;99.90;;;;;;5029361;28;20148;-74
2022/04/23 07:30:51;;;;;;;12.10;10.82;;;12.00;99.90;;;;;;5029505;28;20495;-75
2022/04/23 07:37:28;;;;;;;12.15;10.40;;;12.00;99.90;;;;;;5026286;28;20109;-74
2022/04/23 07:38:49;;;;;;;12.25;10.95;;;12.20;99.90;;;;;;5016840;28;20159;-74
2022/04/23 07:41:14;;;;;;;14.82;11.10;;;12.30;99.40;;;;;;5030146;28;20499;-74
2022/04/23 07:43:40;;;;;;;12.95;11.07;;;12.30;99.20;;;;;;5026410;28;20045;-73
2022/04/23 07:46:05;;;;;;;13.48;11.20;;;12.40;98.50;;;;;;5010577;28;20037;-75
2022/04/23 07:48:32;;;;;;;11.57;10.10;;;12.40;99.10;;;;;;5030234;28;20042;-74
2022/04/23 07:50:57;;;;;;;13.20;10.95;;;12.50;99.80;;;;;;5025576;28;20407;-75
2022/04/23 07:53:24;;;;;;;12.55;11.23;;;12.60;98.90;;;;;;5014979;28;20045;-74
2022/04/23 07:55:49;;;;;;;13.63;11.10;;;12.70;98.90;;;;;;5028933;28;20403;-74
2022/04/23 07:58:15;;;;;;;12.25;10.95;;;12.80;97.80;;;;;;5029936;28;20029;-74
2022/04/23 08:00:42;;;;;;;14.25;10.75;;;12.90;97.20;;;;;;5031487;28;20045;-74
2022/04/23 08:03:08;;;;;;;13.07;11.25;;;13.00;97.00;;;;;;5027414;28;20043;-74
2022/04/23 08:05:34;;;;;;;13.55;11.80;;;13.10;94.80;;;;;;5029121;28;20064;-74
2022/04/23 08:08:00;;;;;;;14.50;11.88;;;13.20;94.60;;;;;;5014522;28;20582;-74
2022/04/23 08:10:26;;;;;;;15.05;12.57;;;13.20;95.70;;;;;;5014141;28;20030;-74
2022/04/23 08:12:54;;;;;;;13.77;12.27;;;13.30;94.20;;;;;;5012937;28;20123;-74
2022/04/23 08:15:20;;;;;;;12.68;10.48;;;13.40;94.00;;;;;;5029896;28;20103;-73
2022/04/23 08:17:45;;;;;;;12.60;11.07;;;13.40;94.30;;;;;;5021777;28;20033;-74
2022/04/23 08:20:13;;;;;;;14.95;11.65;;;13.50;93.60;;;;;;5030793;28;20107;-74
2022/04/23 08:22:38;;;;;;;14.57;12.25;;;13.70;92.00;;;;;;5030236;28;20408;-74
2022/04/23 08:25:04;;;;;;;14.52;11.52;;;13.90;91.30;;;;;;5013754;28;20033;-74
2022/04/23 08:27:30;;;;;;;14.35;11.90;;;14.30;91.50;;;;;;5028945;28;20041;-74
2022/04/23 08:32:40;;;;;;;13.20;11.25;;;15.10;82.50;;;;;;5029865;28;20187;-74
2022/04/23 08:35:06;;;;;;;13.90;10.95;;;15.50;75.50;;;;;;5027927;28;20053;-74
2022/04/23 08:37:34;;;;;;;14.73;10.98;;;15.70;71.70;;;;;;5030470;28;20052;-75
2022/04/23 08:40:00;;;;;;;14.00;11.38;;;15.90;67.50;;;;;;5028335;28;20038;-75
2022/04/23 08:42:26;;;;;;;13.23;10.23;;;16.00;69.10;;;;;;5029488;28;20036;-74
2022/04/23 08:44:54;;;;;;;14.02;10.48;;;16.10;67.30;;;;;;5028790;28;20731;-74
2022/04/23 08:47:23;;;;;;;13.20;10.93;;;16.30;66.10;;;;;;5013562;28;20485;-75
2022/04/23 08:49:56;;;;;;;11.40;9.60;;;16.40;63.60;;;;;;5013484;28;20033;-74
2022/04/23 08:52:29;;;;;;;14.30;11.10;;;16.40;63.40;;;;;;5029346;28;20068;-74
2022/04/23 08:54:56;;;;;;;14.30;10.90;;;16.50;63.50;;;;;;5030031;28;20048;-74
2022/04/23 08:57:22;;;;;;;11.48;9.80;;;16.50;65.90;;;;;;5030511;28;20450;-75
2022/04/23 08:59:51;;;;;;;13.38;10.52;;;16.70;64.00;;;;;;5029524;28;20033;-75
2022/04/23 09:02:17;;;;;;;10.93;9.80;;;16.80;63.30;;;;;;5006200;28;20050;-75
2022/04/23 09:04:43;;;;;;;12.60;10.45;;;16.90;63.80;;;;;;5006845;28;20037;-76
2022/04/23 09:07:26;;;;;;;12.40;10.88;;;17.00;61.80;;;;;;5030124;28;20034;-73
2022/04/23 09:09:52;;;;;;;;;;;17.20;61.00;;;;;;5030892;28;20029;-74
2022/04/23 09:12:19;;;;;;;12.68;9.80;;;17.30;57.90;;;;;;5031094;28;19923;-73
2022/04/23 09:14:46;;;;;;;13.15;10.77;;;17.30;59.20;;;;;;5033600;28;20448;-74
2022/04/23 09:25:40;;;;;;;11.80;10.07;;;17.70;60.30;;;;;;5058513;28;20072;-76
2022/04/23 09:28:30;;;;;;;14.63;10.63;;;18.00;55.80;;;;;;5038779;28;20114;-77
2022/04/23 09:30:56;;;;;;;12.85;11.40;;;18.20;56.00;;;;;;5039759;28;20025;-77
2022/04/23 09:33:30;;;;;;;13.18;10.23;;;18.10;56.10;;;;;;5035956;28;20044;-77
2022/04/23 09:36:03;;;;;;;12.02;10.82;;;18.20;57.00;;;;;;5039063;28;20040;-77
2022/04/23 09:38:30;;;;;;;11.70;10.50;;;18.70;53.50;;;;;;5039030;28;20519;-78
2022/04/23 09:40:59;;;;;;;12.82;10.80;;;18.60;53.30;;;;;;5040065;28;20556;-77
2022/04/23 09:43:40;;;;;;;12.20;10.80;;;18.50;53.20;;;;;;5037419;28;20044;-77
2022/04/23 09:46:09;;;;;;;11.57;10.35;;;18.30;53.20;;;;;;5045025;28;20045;-77
2022/04/23 09:48:40;;;;;;;12.23;10.93;;;18.00;56.00;;;;;;5033369;28;20036;-79
2022/04/23 09:51:20;;;;;;;13.27;9.98;;;18.20;56.40;;;;;;5032453;28;20143;-75
2022/04/23 09:54:00;;;;;;;13.45;10.52;;;18.50;55.20;;;;;;5051315;28;20037;-75
2022/04/23 09:56:29;;;;;;;12.93;11.57;;;18.50;54.40;;;;;;5055049;28;20041;-75
2022/04/23 09:59:03;;;;;;;15.85;11.68;;;18.60;53.70;;;;;;5054091;28;20550;-76
2022/04/23 10:01:34;;;;;;;11.88;10.68;;;18.70;53.20;;;;;;5037968;28;20040;-76
2022/04/23 10:04:07;;;;;;;12.63;11.32;;;18.70;52.20;;;;;;5034502;28;20406;-75
2022/04/23 10:06:35;;;;;;;12.38;11.15;;;18.70;53.40;;;;;;5037643;28;20088;-75
2022/04/23 10:09:08;;;;;;;12.35;11.15;;;18.60;54.80;;;;;;5038761;28;20379;-75
2022/04/23 10:11:41;;;;;;;12.77;11.13;;;18.60;55.40;;;;;;5056710;28;20117;-75
2022/04/23 10:14:14;;;;;;;11.98;10.75;;;19.00;55.60;;;;;;5039435;28;20036;-75
2022/04/23 10:16:40;;;;;;;;;;;19.30;51.10;;;;;;5056692;28;20056;-75
2022/04/23 10:19:10;;;;;;;13.75;11.80;;;19.10;52.30;;;;;;5054336;28;20185;-75
2022/04/23 10:22:11;;;;;;;13.52;12.13;;;19.10;52.00;;;;;;5036643;28;20083;-75
2022/04/23 10:25:03;;;;;;;12.88;11.57;;;18.90;51.90;;;;;;5038257;28;20051;-75
2022/04/23 10:27:34;;;;;;;13.13;11.73;;;18.60;52.70;;;;;;5055951;28;20040;-75
2022/04/23 10:30:06;;;;;;;14.20;12.35;;;18.70;52.20;;;;;;5037994;28;20040;-75
2022/04/23 10:32:42;;;;;;;14.35;12.23;;;18.70;51.90;;;;;;5038772;28;20050;-76
2022/04/23 10:35:16;;;;;;;13.88;12.48;;;18.60;52.60;;;;;;5054901;28;20047;-75
2022/04/23 10:37:51;;;;;;;14.43;11.98;;;18.70;52.60;;;;;;5054113;28;20040;-75
2022/04/23 10:40:23;;;;;;;13.05;11.63;;;18.80;53.10;;;;;;5071474;28;20036;-75
2022/04/23 10:43:09;;;;;;;14.45;12.95;;;19.10;51.30;;;;;;5039101;28;20071;-75
2022/04/23 10:45:36;;;;;;;12.90;11.60;;;18.90;52.40;;;;;;5055142;28;20181;-75
2022/04/23 10:48:43;;;;;;;14.30;12.80;;;19.00;53.80;;;;;;5034285;28;20517;-75
2022/04/23 10:51:11;;;;;;;13.43;12.02;;;19.50;51.40;;;;;;5005363;28;20056;-75
2022/04/23 10:53:42;;;;;;;12.43;11.20;;;19.60;52.10;;;;;;5039625;28;20044;-75
2022/04/23 10:56:19;;;;;;;13.75;12.18;;;20.00;49.40;;;;;;5038441;28;20063;-76
2022/04/23 10:58:45;;;;;;;13.38;11.98;;;19.80;48.90;;;;;;5038354;28;20349;-75
2022/04/23 11:01:27;;;;;;;13.15;11.90;;;19.50;50.20;;;;;;5054641;28;20040;-76
2022/04/23 11:03:53;;;;;;;12.50;11.30;;;19.50;51.70;;;;;;5031710;28;20032;-76
2022/04/23 11:12:34;;;;;;;12.77;11.23;;;19.80;49.30;;;;;;5055813;28;20040;-75
2022/04/23 11:15:01;;;;;;;13.10;11.90;;;19.70;50.40;;;;;;5039923;28;20123;-75
2022/04/23 11:17:47;;;;;;;12.82;11.52;;;19.90;48.60;;;;;;5035966;28;20517;-75
2022/04/23 11:20:30;;;;;;;13.15;11.85;;;19.90;49.90;;;;;;5039228;28;20071;-76
2022/04/23 11:23:01;;;;;;;12.90;11.50;;;19.90;49.50;;;;;;5022130;28;20120;-75
2022/04/23 11:25:30;;;;;;;14.20;11.98;;;19.80;49.80;;;;;;5038531;28;20040;-75
2022/04/23 11:28:01;;;;;;;12.65;11.35;;;19.90;48.30;;;;;;5037402;28;20082;-75
2022/04/23 11:30:35;;;;;;;13.27;11.88;;;19.40;49.60;;;;;;5035981;28;20409;-75
2022/04/23 11:33:12;;;;;;;12.73;11.10;;;19.30;50.40;;;;;;5054023;28;20079;-75
2022/04/23 11:35:41;;;;;;;13.65;11.35;;;19.30;51.00;;;;;;5037194;28;20089;-75
2022/04/23 11:38:21;;;;;;;12.13;10.93;;;19.50;51.00;;;;;;5036707;28;20098;-75
2022/04/23 11:40:55;;;;;;;12.57;11.25;;;19.90;50.10;;;;;;5048647;28;20487;-75
2022/04/23 11:43:39;;;;;;;12.20;11.10;;;20.10;48.70;;;;;;5037940;28;20581;-75
2022/04/23 11:46:08;;;;;;;12.68;11.30;;;20.20;50.00;;;;;;5037950;28;20493;-75
2022/04/23 11:48:42;;;;;;;12.35;11.02;;;20.20;49.40;;;;;;5053734;28;20039;-75
2022/04/23 11:51:10;;;;;;;12.75;11.35;;;20.00;50.10;;;;;;5037625;28;20075;-76
2022/04/23 11:53:56;;;;;;;12.40;11.07;;;20.40;52.20;;;;;;5036634;28;20123;-75
2022/04/23 11:56:32;;;;;;;12.93;10.55;;;21.10;47.00;;;;;;5037390;28;20405;-75
2022/04/23 11:59:03;;;;;;;12.13;10.93;;;21.20;46.60;;;;;;5053593;28;20033;-76
2022/04/23 12:01:29;;;;;;;11.50;10.50;;;21.10;46.20;;;;;;5026950;28;20052;-75
2022/04/23 12:03:59;;;;;;;13.07;11.13;;;20.90;47.40;;;;;;5036289;28;20033;-76
2022/04/23 12:06:25;;;;;;;13.38;11.98;;;20.80;47.70;;;;;;5036712;28;20090;-75
2022/04/23 12:09:08;;;;;;;12.32;10.98;;;20.90;46.40;;;;;;5054362;28;20106;-75
2022/04/23 12:11:41;;;;;;;11.77;10.57;;;21.10;48.10;;;;;;5035985;28;20509;-75
2022/04/23 12:14:09;;;;;;;11.10;10.00;;;21.50;44.10;;;;;;5037858;28;20044;-75
2022/04/23 12:16:43;;;;;;;15.27;11.00;;;21.10;44.70;;;;;;5036696;28;20042;-75
2022/04/23 12:19:13;;;;;;;15.73;11.52;;;20.70;46.30;;;;;;5038314;28;20044;-75
2022/04/23 12:21:57;;;;;;;11.70;10.50;;;20.60;45.20;;;;;;5053013;28;20044;-75
2022/04/23 12:24:34;;;;;;;11.90;10.70;;;20.60;46.10;;;;;;5036137;28;20056;-76
2022/04/23 12:27:09;;;;;;;11.25;10.23;;;20.70;47.80;;;;;;5036478;28;20051;-75
2022/04/23 12:41:14;;;;;;;11.60;8.80;;;20.70;45.20;;;;;;5051486;28;20033;-75
2022/04/23 12:43:40;;;;;;;9.98;8.05;;;20.50;46.20;;;;;;5050062;28;20486;-75
2022/04/23 12:46:14;;;;;;;9.45;8.23;;;20.60;45.10;;;;;;5048242;28;20040;-75
2022/04/23 12:49:22;;;;;;;9.40;8.05;;;20.60;44.40;;;;;;5032782;28;20045;-74
2022/04/23 12:51:55;;;;;;;11.20;7.55;;;20.60;45.60;;;;;;5033209;28;20048;-77
2022/04/23 12:54:24;;;;;;;9.75;8.30;;;20.90;45.40;;;;;;5016730;28;20080;-76
2022/04/23 12:57:17;;;;;;;10.18;7.47;;;21.10;44.00;;;;;;5035971;28;20040;-76
2022/04/23 12:59:52;;;;;;;9.30;7.38;;;21.30;44.40;;;;;;5030315;28;20246;-76
2022/04/23 13:02:24;;;;;;;7.43;6.68;;;21.40;42.90;;;;;;5034967;28;20041;-76
2022/04/23 13:05:07;;;;;;;7.97;7.18;;;21.50;42.60;;;;;;5036328;28;20047;-76
2022/04/23 13:10:30;;;;;;;7.82;7.13;;;21.60;44.00;;;;;;5051940;28;20521;-77
2022/04/23 13:13:08;;;;;;;9.40;6.72;;;22.00;41.80;;;;;;5037088;28;20036;-78
2022/04/23 13:15:42;;;;;;;8.20;6.35;;;21.80;42.50;;;;;;5033685;28;20506;-77
2022/04/23 13:18:13;;;;;;;7.95;6.30;;;21.60;42.30;;;;;;5036048;28;20119;-77
2022/04/23 13:20:41;;;;;;;8.15;6.95;;;21.50;42.40;;;;;;5021438;28;20036;-75
2022/04/23 13:23:07;;;;;;;7.03;6.20;;;21.60;42.60;;;;;;5034780;28;20039;-76